sensor_id;sensor_type;location;lat;lon;timestamp;pressure;altitude;pressure_sealevel;temperature;humidity
75886;BME280;64561;44.018;10.144;2024-03-08T00:00:16;101607.09;;;7.82;100.00
75886;BME280;64561;44.018;10.144;2024-03-08T00:02:47;101617.38;;;7.84;100.00
75886;BME280;64561;44.018;10.144;2024-03-08T00:05:15;101621.22;;;7.75;100.00
75886;BME280;64561;44.018;10.144;2024-03-08T00:07:42;101614.16;;;7.70;100.00
75886;BME280;64561;44.018;10.144;2024-03-08T00:10:12;101610.59;;;7.66;100.00
75886;BME280;64561;44.018;10.144;2024-03-08T00:12:44;101611.47;;;7.67;100.00
75886;BME280;64561;44.018;10.144;2024-03-08T00:15:14;101615.22;;;7.73;100.00
75886;BME280;64561;44.018;10.144;2024-03-08T00:17:44;101617.00;;;7.76;100.00
75886;BME280;64561;44.018;10.144;2024-03-08T00:20:12;101608.44;;;7.74;100.00
75886;BME280;64561;44.018;10.144;2024-03-08T00:22:41;101613.09;;;7.65;100.00
75886;BME280;64561;44.018;10.144;2024-03-08T00:25:08;101607.75;;;7.60;100.00
75886;BME280;64561;44.018;10.144;2024-03-08T00:27:42;101600.78;;;7.56;100.00
75886;BME280;64561;44.018;10.144;2024-03-08T00:30:10;101601.41;;;7.52;100.00
75886;BME280;64561;44.018;10.144;2024-03-08T00:32:40;101600.69;;;7.54;100.00
75886;BME280;64561;44.018;10.144;2024-03-08T00:35:08;101602.09;;;7.66;100.00
75886;BME280;64561;44.018;10.144;2024-03-08T00:37:35;101600.13;;;7.60;99.27
75886;BME280;64561;44.018;10.144;2024-03-08T00:40:03;101591.22;;;7.52;99.60
75886;BME280;64561;44.018;10.144;2024-03-08T00:42:31;101588.63;;;7.50;100.00
75886;BME280;64561;44.018;10.144;2024-03-08T00:45:00;101585.25;;;7.51;100.00
75886;BME280;64561;44.018;10.144;2024-03-08T00:47:30;101588.53;;;7.49;100.00
75886;BME280;64561;44.018;10.144;2024-03-08T00:49:57;101583.00;;;7.40;100.00
75886;BME280;64561;44.018;10.144;2024-03-08T00:52:24;101578.84;;;7.42;100.00
75886;BME280;64561;44.018;10.144;2024-03-08T00:54:52;101576.59;;;7.48;100.00
75886;BME280;64561;44.018;10.144;2024-03-08T00:57:19;101584.41;;;7.51;100.00
75886;BME280;64561;44.018;10.144;2024-03-08T00:59:46;101575.22;;;7.54;100.00
75886;BME280;64561;44.018;10.144;2024-03-08T01:02:14;101570.13;;;7.54;100.00
75886;BME280;64561;44.018;10.144;2024-03-08T01:04:41;101581.19;;;7.55;100.00
75886;BME280;64561;44.018;10.144;2024-03-08T01:07:08;101567.53;;;7.53;100.00
75886;BME280;64561;44.018;10.144;2024-03-08T01:09:35;101578.19;;;7.46;100.00
75886;BME280;64561;44.018;10.144;2024-03-08T01:12:02;101572.94;;;7.43;100.00
75886;BME280;64561;44.018;10.144;2024-03-08T01:14:30;101574.19;;;7.33;100.00
75886;BME280;64561;44.018;10.144;2024-03-08T01:16:58;101572.22;;;7.27;100.00
75886;BME280;64561;44.018;10.144;2024-03-08T01:19:25;101572.16;;;7.26;100.00
75886;BME280;64561;44.018;10.144;2024-03-08T01:21:52;101574.19;;;7.33;100.00
75886;BME280;64561;44.018;10.144;2024-03-08T01:24:22;101569.19;;;7.35;100.00
75886;BME280;64561;44.018;10.144;2024-03-08T01:26:50;101564.81;;;7.32;100.00
75886;BME280;64561;44.018;10.144;2024-03-08T01:29:17;101565.44;;;7.28;100.00
75886;BME280;64561;44.018;10.144;2024-03-08T01:31:44;101561.72;;;7.21;100.00
75886;BME280;64561;44.018;10.144;2024-03-08T01:34:11;101568.34;;;7.18;100.00
75886;BME280;64561;44.018;10.144;2024-03-08T01:36:38;101558.88;;;7.15;100.00
75886;BME280;64561;44.018;10.144;2024-03-08T01:39:07;101561.94;;;7.08;100.00
75886;BME280;64561;44.018;10.144;2024-03-08T01:41:36;101555.56;;;7.00;100.00
75886;BME280;64561;44.018;10.144;2024-03-08T01:44:03;101552.72;;;6.94;100.00
75886;BME280;64561;44.018;10.144;2024-03-08T01:46:30;101548.19;;;6.88;100.00
75886;BME280;64561;44.018;10.144;2024-03-08T01:48:59;101553.13;;;6.85;100.00
75886;BME280;64561;44.018;10.144;2024-03-08T01:51:28;101547.88;;;6.82;100.00
75886;BME280;64561;44.018;10.144;2024-03-08T01:53:56;101542.09;;;6.84;100.00
75886;BME280;64561;44.018;10.144;2024-03-08T01:56:24;101543.66;;;6.82;100.00
75886;BME280;64561;44.018;10.144;2024-03-08T01:58:52;101549.56;;;6.81;100.00
75886;BME280;64561;44.018;10.144;2024-03-08T02:01:19;101543.81;;;6.85;100.00
75886;BME280;64561;44.018;10.144;2024-03-08T02:03:47;101543.59;;;6.81;100.00
75886;BME280;64561;44.018;10.144;2024-03-08T02:06:14;101549.56;;;6.81;100.00
75886;BME280;64561;44.018;10.144;2024-03-08T02:08:43;101541.06;;;6.81;100.00
75886;BME280;64561;44.018;10.144;2024-03-08T02:11:12;101542.25;;;6.87;100.00
75886;BME280;64561;44.018;10.144;2024-03-08T02:13:39;101542.84;;;7.00;100.00
75886;BME280;64561;44.018;10.144;2024-03-08T02:16:07;101537.19;;;7.05;100.00
75886;BME280;64561;44.018;10.144;2024-03-08T02:18:36;101533.69;;;7.03;100.00
75886;BME280;64561;44.018;10.144;2024-03-08T02:21:05;101529.16;;;6.98;100.00
75886;BME280;64561;44.018;10.144;2024-03-08T02:23:33;101527.28;;;6.94;100.00
75886;BME280;64561;44.018;10.144;2024-03-08T02:26:01;101534.84;;;6.92;100.00
75886;BME280;64561;44.018;10.144;2024-03-08T02:28:28;101533.50;;;6.82;100.00
75886;BME280;64561;44.018;10.144;2024-03-08T02:30:56;101532.09;;;6.71;100.00
75886;BME280;64561;44.018;10.144;2024-03-08T02:33:26;101528.03;;;6.75;100.00
75886;BME280;64561;44.018;10.144;2024-03-08T02:35:54;101522.72;;;6.70;100.00
75886;BME280;64561;44.018;10.144;2024-03-08T02:38:23;101527.56;;;6.66;100.00
75886;BME280;64561;44.018;10.144;2024-03-08T02:40:53;101523.56;;;6.71;100.00
75886;BME280;64561;44.018;10.144;2024-03-08T02:43:22;101519.78;;;6.62;100.00
75886;BME280;64561;44.018;10.144;2024-03-08T02:45:51;101525.50;;;6.58;100.00
75886;BME280;64561;44.018;10.144;2024-03-08T02:48:21;101517.66;;;6.54;100.00
75886;BME280;64561;44.018;10.144;2024-03-08T02:50:49;101507.00;;;6.45;100.00
75886;BME280;64561;44.018;10.144;2024-03-08T02:53:18;101520.25;;;6.55;100.00
75886;BME280;64561;44.018;10.144;2024-03-08T02:55:46;101511.13;;;6.59;100.00
75886;BME280;64561;44.018;10.144;2024-03-08T02:58:13;101506.22;;;6.62;100.00
75886;BME280;64561;44.018;10.144;2024-03-08T03:00:41;101510.72;;;6.68;100.00
75886;BME280;64561;44.018;10.144;2024-03-08T03:03:12;101504.69;;;6.66;100.00
75886;BME280;64561;44.018;10.144;2024-03-08T03:05:39;101502.84;;;6.63;100.00
75886;BME280;64561;44.018;10.144;2024-03-08T03:08:14;101507.47;;;6.54;100.00
75886;BME280;64561;44.018;10.144;2024-03-08T03:10:45;101505.34;;;6.45;100.00
75886;BME280;64561;44.018;10.144;2024-03-08T03:13:13;101499.94;;;6.39;100.00
75886;BME280;64561;44.018;10.144;2024-03-08T03:15:41;101500.66;;;6.36;100.00
75886;BME280;64561;44.018;10.144;2024-03-08T03:18:10;101498.66;;;6.31;100.00
75886;BME280;64561;44.018;10.144;2024-03-08T03:20:39;101500.88;;;6.25;100.00
75886;BME280;64561;44.018;10.144;2024-03-08T03:23:10;101490.56;;;6.22;100.00
75886;BME280;64561;44.018;10.144;2024-03-08T03:25:42;101496.06;;;6.29;100.00
75886;BME280;64561;44.018;10.144;2024-03-08T03:28:44;101496.81;;;6.28;100.00
75886;BME280;64561;44.018;10.144;2024-03-08T03:31:11;101495.56;;;6.36;100.00
75886;BME280;64561;44.018;10.144;2024-03-08T03:33:41;101499.03;;;6.55;100.00
75886;BME280;64561;44.018;10.144;2024-03-08T03:36:08;101500.88;;;6.57;100.00
75886;BME280;64561;44.018;10.144;2024-03-08T03:38:37;101505.56;;;6.50;100.00
75886;BME280;64561;44.018;10.144;2024-03-08T03:41:04;101499.22;;;6.41;100.00
75886;BME280;64561;44.018;10.144;2024-03-08T03:43:37;101498.50;;;6.44;100.00
75886;BME280;64561;44.018;10.144;2024-03-08T03:46:06;101505.66;;;6.51;100.00
75886;BME280;64561;44.018;10.144;2024-03-08T03:48:34;101502.69;;;6.44;100.00
75886;BME280;64561;44.018;10.144;2024-03-08T03:51:01;101503.34;;;6.39;100.00
75886;BME280;64561;44.018;10.144;2024-03-08T03:53:28;101504.06;;;6.37;100.00
75886;BME280;64561;44.018;10.144;2024-03-08T03:55:55;101497.16;;;6.34;100.00
75886;BME280;64561;44.018;10.144;2024-03-08T03:58:23;101499.63;;;6.33;100.00
75886;BME280;64561;44.018;10.144;2024-03-08T04:00:50;101504.88;;;6.36;100.00
75886;BME280;64561;44.018;10.144;2024-03-08T04:03:17;101507.47;;;6.37;100.00
75886;BME280;64561;44.018;10.144;2024-03-08T04:05:46;101502.00;;;6.46;100.00
75886;BME280;64561;44.018;10.144;2024-03-08T04:08:13;101503.16;;;6.53;100.00
75886;BME280;64561;44.018;10.144;2024-03-08T04:10:40;101505.97;;;6.41;100.00
75886;BME280;64561;44.018;10.144;2024-03-08T04:13:10;101507.41;;;6.36;100.00
75886;BME280;64561;44.018;10.144;2024-03-08T04:15:37;101513.84;;;6.29;100.00
75886;BME280;64561;44.018;10.144;2024-03-08T04:18:04;101503.59;;;6.28;100.00
75886;BME280;64561;44.018;10.144;2024-03-08T04:20:32;101501.59;;;6.22;100.00
75886;BME280;64561;44.018;10.144;2024-03-08T04:22:59;101505.66;;;6.18;100.00
75886;BME280;64561;44.018;10.144;2024-03-08T04:25:26;101507.22;;;6.16;100.00
75886;BME280;64561;44.018;10.144;2024-03-08T04:27:54;101513.59;;;6.25;100.00
75886;BME280;64561;44.018;10.144;2024-03-08T04:30:21;101510.75;;;6.35;100.00
75886;BME280;64561;44.018;10.144;2024-03-08T04:32:48;101507.78;;;6.44;100.00
75886;BME280;64561;44.018;10.144;2024-03-08T04:35:16;101503.34;;;6.39;100.00
75886;BME280;64561;44.018;10.144;2024-03-08T04:37:43;101502.16;;;6.33;100.00
75886;BME280;64561;44.018;10.144;2024-03-08T04:40:11;101503.75;;;6.31;100.00
75886;BME280;64561;44.018;10.144;2024-03-08T04:42:39;101503.28;;;6.38;100.00
75886;BME280;64561;44.018;10.144;2024-03-08T04:45:08;101513.78;;;6.44;100.00
75886;BME280;64561;44.018;10.144;2024-03-08T04:47:38;101512.16;;;6.46;100.00
75886;BME280;64561;44.018;10.144;2024-03-08T04:50:06;101511.53;;;6.50;100.00
75886;BME280;64561;44.018;10.144;2024-03-08T04:52:33;101509.47;;;6.43;100.00
75886;BME280;64561;44.018;10.144;2024-03-08T04:55:00;101513.13;;;6.32;100.00
75886;BME280;64561;44.018;10.144;2024-03-08T04:57:29;101511.84;;;6.24;100.00
75886;BME280;64561;44.018;10.144;2024-03-08T04:59:56;101516.19;;;6.10;100.00
75886;BME280;64561;44.018;10.144;2024-03-08T05:02:25;101510.94;;;6.07;100.00
75886;BME280;64561;44.018;10.144;2024-03-08T05:04:52;101507.22;;;6.00;100.00
75886;BME280;64561;44.018;10.144;2024-03-08T05:07:20;101508.19;;;5.87;100.00
75886;BME280;64561;44.018;10.144;2024-03-08T05:09:47;101497.72;;;5.81;100.00
75886;BME280;64561;44.018;10.144;2024-03-08T05:12:19;101494.22;;;5.79;100.00
75886;BME280;64561;44.018;10.144;2024-03-08T05:14:46;101488.88;;;5.74;100.00
75886;BME280;64561;44.018;10.144;2024-03-08T05:17:16;101496.25;;;5.70;100.00
75886;BME280;64561;44.018;10.144;2024-03-08T05:19:44;101478.16;;;5.64;100.00
75886;BME280;64561;44.018;10.144;2024-03-08T05:22:12;101481.38;;;5.61;100.00
75886;BME280;64561;44.018;10.144;2024-03-08T05:24:39;101475.78;;;5.67;100.00
75886;BME280;64561;44.018;10.144;2024-03-08T05:27:06;101474.69;;;5.78;100.00
75886;BME280;64561;44.018;10.144;2024-03-08T05:29:33;101473.50;;;5.88;100.00
75886;BME280;64561;44.018;10.144;2024-03-08T05:32:00;101485.06;;;5.98;100.00
75886;BME280;64561;44.018;10.144;2024-03-08T05:34:29;101487.69;;;5.99;100.00
75886;BME280;64561;44.018;10.144;2024-03-08T05:36:56;101490.78;;;6.10;100.00
75886;BME280;64561;44.018;10.144;2024-03-08T05:39:25;101488.09;;;6.07;100.00
75886;BME280;64561;44.018;10.144;2024-03-08T05:41:52;101489.84;;;6.08;100.00
75886;BME280;64561;44.018;10.144;2024-03-08T05:44:19;101480.63;;;6.10;100.00
75886;BME280;64561;44.018;10.144;2024-03-08T05:46:46;101485.22;;;6.01;100.00
75886;BME280;64561;44.018;10.144;2024-03-08T05:49:14;101481.81;;;6.00;100.00
75886;BME280;64561;44.018;10.144;2024-03-08T05:51:42;101484.84;;;5.93;100.00
75886;BME280;64561;44.018;10.144;2024-03-08T05:54:11;101487.19;;;5.90;100.00
75886;BME280;64561;44.018;10.144;2024-03-08T05:56:42;101488.75;;;5.88;100.00
75886;BME280;64561;44.018;10.144;2024-03-08T05:59:11;101487.56;;;5.81;100.00
75886;BME280;64561;44.018;10.144;2024-03-08T06:01:38;101490.00;;;5.80;100.00
75886;BME280;64561;44.018;10.144;2024-03-08T06:04:09;101495.50;;;5.87;100.00
75886;BME280;64561;44.018;10.144;2024-03-08T06:06:39;101488.72;;;6.03;100.00
75886;BME280;64561;44.018;10.144;2024-03-08T06:09:08;101492.22;;;6.05;100.00
75886;BME280;64561;44.018;10.144;2024-03-08T06:11:50;101501.03;;;5.80;100.00
75886;BME280;64561;44.018;10.144;2024-03-08T06:14:17;101494.22;;;5.79;100.00
75886;BME280;64561;44.018;10.144;2024-03-08T06:16:46;101500.84;;;5.77;100.00
75886;BME280;64561;44.018;10.144;2024-03-08T06:19:13;101501.50;;;5.73;100.00
75886;BME280;64561;44.018;10.144;2024-03-08T06:21:40;101502.84;;;5.66;100.00
75886;BME280;64561;44.018;10.144;2024-03-08T06:24:08;101507.22;;;5.69;100.00
75886;BME280;64561;44.018;10.144;2024-03-08T06:26:35;101497.63;;;5.80;100.00
75886;BME280;64561;44.018;10.144;2024-03-08T06:29:06;101493.13;;;5.90;100.00
75886;BME280;64561;44.018;10.144;2024-03-08T06:31:34;101495.22;;;5.98;100.00
75886;BME280;64561;44.018;10.144;2024-03-08T06:34:01;101494.84;;;6.06;100.00
75886;BME280;64561;44.018;10.144;2024-03-08T06:36:29;101502.88;;;6.14;100.00
75886;BME280;64561;44.018;10.144;2024-03-08T06:38:55;101509.38;;;6.25;100.00
75886;BME280;64561;44.018;10.144;2024-03-08T06:41:24;101510.44;;;6.29;100.00
75886;BME280;64561;44.018;10.144;2024-03-08T06:43:51;101517.78;;;6.40;100.00
75886;BME280;64561;44.018;10.144;2024-03-08T06:46:19;101506.84;;;6.41;100.00
75886;BME280;64561;44.018;10.144;2024-03-08T06:48:48;101511.53;;;6.50;100.00
75886;BME280;64561;44.018;10.144;2024-03-08T06:51:18;101506.75;;;6.56;100.00
75886;BME280;64561;44.018;10.144;2024-03-08T06:53:46;101509.13;;;6.70;100.00
75886;BME280;64561;44.018;10.144;2024-03-08T06:56:13;101516.50;;;6.81;100.00
75886;BME280;64561;44.018;10.144;2024-03-08T06:58:40;101509.25;;;6.89;100.00
75886;BME280;64561;44.018;10.144;2024-03-08T07:01:08;101516.53;;;6.99;100.00
75886;BME280;64561;44.018;10.144;2024-03-08T07:03:41;101510.88;;;7.05;100.00
75886;BME280;64561;44.018;10.144;2024-03-08T07:06:11;101511.09;;;7.09;100.00
75886;BME280;64561;44.018;10.144;2024-03-08T07:08:39;101515.91;;;7.21;100.00
75886;BME280;64561;44.018;10.144;2024-03-08T07:11:06;101510.50;;;7.31;100.00
75886;BME280;64561;44.018;10.144;2024-03-08T07:13:33;101512.91;;;7.46;100.00
75886;BME280;64561;44.018;10.144;2024-03-08T07:16:00;101516.88;;;7.59;100.00
75886;BME280;64561;44.018;10.144;2024-03-08T07:18:28;101508.38;;;7.76;100.00
75886;BME280;64561;44.018;10.144;2024-03-08T07:20:57;101505.44;;;7.87;100.00
75886;BME280;64561;44.018;10.144;2024-03-08T07:23:25;101508.47;;;7.97;100.00
75886;BME280;64561;44.018;10.144;2024-03-08T07:26:27;101515.84;;;8.11;100.00
75886;BME280;64561;44.018;10.144;2024-03-08T07:28:55;101531.66;;;8.21;100.00
75886;BME280;64561;44.018;10.144;2024-03-08T07:31:22;101515.81;;;8.29;100.00
75886;BME280;64561;44.018;10.144;2024-03-08T07:34:04;101515.34;;;8.37;100.00
75886;BME280;64561;44.018;10.144;2024-03-08T07:36:34;101512.22;;;8.43;100.00
75886;BME280;64561;44.018;10.144;2024-03-08T07:39:02;101516.72;;;8.49;99.57
75886;BME280;64561;44.018;10.144;2024-03-08T07:41:30;101518.00;;;8.58;99.29
75886;BME280;64561;44.018;10.144;2024-03-08T07:43:57;101515.63;;;8.63;99.72
75886;BME280;64561;44.018;10.144;2024-03-08T07:46:24;101525.34;;;8.72;100.00
75886;BME280;64561;44.018;10.144;2024-03-08T07:48:54;101522.75;;;8.70;99.21
75886;BME280;64561;44.018;10.144;2024-03-08T07:51:21;101522.00;;;8.73;98.49
75886;BME280;64561;44.018;10.144;2024-03-08T07:53:48;101520.25;;;8.72;98.59
75886;BME280;64561;44.018;10.144;2024-03-08T07:56:16;101522.88;;;8.73;98.92
75886;BME280;64561;44.018;10.144;2024-03-08T07:58:45;101517.22;;;8.80;96.36
75886;BME280;64561;44.018;10.144;2024-03-08T08:01:16;101524.38;;;8.89;95.93
75886;BME280;64561;44.018;10.144;2024-03-08T08:03:45;101523.94;;;8.99;94.45
75886;BME280;64561;44.018;10.144;2024-03-08T08:06:12;101525.03;;;9.04;91.84
75886;BME280;64561;44.018;10.144;2024-03-08T08:08:43;101522.59;;;9.07;89.92
75886;BME280;64561;44.018;10.144;2024-03-08T08:11:10;101521.03;;;9.11;89.26
75886;BME280;64561;44.018;10.144;2024-03-08T08:13:42;101523.53;;;9.09;89.34
75886;BME280;64561;44.018;10.144;2024-03-08T08:16:10;101527.91;;;9.12;89.74
75886;BME280;64561;44.018;10.144;2024-03-08T08:18:40;101524.66;;;9.16;89.75
75886;BME280;64561;44.018;10.144;2024-03-08T08:21:07;101525.91;;;9.26;88.88
75886;BME280;64561;44.018;10.144;2024-03-08T08:23:34;101519.91;;;9.25;89.46
75886;BME280;64561;44.018;10.144;2024-03-08T08:26:02;101526.75;;;9.26;90.22
75886;BME280;64561;44.018;10.144;2024-03-08T08:28:31;101528.44;;;9.26;90.49
75886;BME280;64561;44.018;10.144;2024-03-08T08:30:59;101528.69;;;9.32;91.91
75886;BME280;64561;44.018;10.144;2024-03-08T08:33:26;101526.00;;;9.50;91.92
75886;BME280;64561;44.018;10.144;2024-03-08T08:35:53;101523.69;;;9.56;90.83
75886;BME280;64561;44.018;10.144;2024-03-08T08:38:21;101518.91;;;9.64;91.66
75886;BME280;64561;44.018;10.144;2024-03-08T08:40:48;101510.59;;;9.69;89.78
75886;BME280;64561;44.018;10.144;2024-03-08T08:43:16;101519.41;;;9.77;88.17
75886;BME280;64561;44.018;10.144;2024-03-08T08:45:44;101517.19;;;9.87;87.67
75886;BME280;64561;44.018;10.144;2024-03-08T08:48:14;101513.38;;;9.98;87.08
75886;BME280;64561;44.018;10.144;2024-03-08T08:50:41;101516.03;;;10.01;87.45
75886;BME280;64561;44.018;10.144;2024-03-08T08:53:08;101510.50;;;10.13;84.22
75886;BME280;64561;44.018;10.144;2024-03-08T08:55:35;101510.81;;;10.20;84.83
75886;BME280;64561;44.018;10.144;2024-03-08T08:58:03;101509.22;;;10.24;84.78
75886;BME280;64561;44.018;10.144;2024-03-08T09:00:30;101506.19;;;10.34;85.13
75886;BME280;64561;44.018;10.144;2024-03-08T09:02:59;101505.09;;;10.50;81.78
75886;BME280;64561;44.018;10.144;2024-03-08T09:05:26;101500.97;;;10.55;80.25
75886;BME280;64561;44.018;10.144;2024-03-08T09:07:55;101508.63;;;10.53;81.99
75886;BME280;64561;44.018;10.144;2024-03-08T09:10:22;101506.75;;;10.49;82.16
75886;BME280;64561;44.018;10.144;2024-03-08T09:12:56;101499.16;;;10.52;82.17
75886;BME280;64561;44.018;10.144;2024-03-08T09:15:24;101495.81;;;10.53;82.37
75886;BME280;64561;44.018;10.144;2024-03-08T09:17:55;101502.78;;;10.58;80.00
75886;BME280;64561;44.018;10.144;2024-03-08T09:20:23;101506.72;;;10.73;82.32
75886;BME280;64561;44.018;10.144;2024-03-08T09:22:50;101501.22;;;10.87;84.53
75886;BME280;64561;44.018;10.144;2024-03-08T09:25:17;101500.13;;;11.06;85.39
75886;BME280;64561;44.018;10.144;2024-03-08T09:27:44;101503.09;;;11.18;82.74
75886;BME280;64561;44.018;10.144;2024-03-08T09:30:13;101502.78;;;11.34;81.55
75886;BME280;64561;44.018;10.144;2024-03-08T09:32:42;101497.78;;;11.39;81.21
75886;BME280;64561;44.018;10.144;2024-03-08T09:35:10;101491.88;;;11.41;82.35
75886;BME280;64561;44.018;10.144;2024-03-08T09:37:38;101496.25;;;11.45;81.97
75886;BME280;64561;44.018;10.144;2024-03-08T09:40:05;101490.28;;;11.45;83.05
75886;BME280;64561;44.018;10.144;2024-03-08T09:42:37;101492.06;;;11.48;84.46
75886;BME280;64561;44.018;10.144;2024-03-08T09:45:08;101486.25;;;11.53;84.46
75886;BME280;64561;44.018;10.144;2024-03-08T09:47:39;101485.03;;;11.69;83.53
75886;BME280;64561;44.018;10.144;2024-03-08T09:50:08;101487.00;;;11.78;81.68
75886;BME280;64561;44.018;10.144;2024-03-08T09:52:36;101475.03;;;11.78;79.48
75886;BME280;64561;44.018;10.144;2024-03-08T09:55:07;101485.31;;;11.78;80.68
75886;BME280;64561;44.018;10.144;2024-03-08T09:57:36;101487.94;;;11.81;81.86
75886;BME280;64561;44.018;10.144;2024-03-08T10:00:04;101484.81;;;11.90;80.00
75886;BME280;64561;44.018;10.144;2024-03-08T10:02:46;101484.13;;;11.96;79.34
75886;BME280;64561;44.018;10.144;2024-03-08T10:05:13;101481.13;;;12.10;80.90
75886;BME280;64561;44.018;10.144;2024-03-08T10:07:40;101479.09;;;12.29;80.98
75886;BME280;64561;44.018;10.144;2024-03-08T10:10:08;101476.75;;;12.37;79.34
75886;BME280;64561;44.018;10.144;2024-03-08T10:12:35;101478.88;;;12.53;80.73
75886;BME280;64561;44.018;10.144;2024-03-08T10:15:05;101482.63;;;12.66;80.71
75886;BME280;64561;44.018;10.144;2024-03-08T10:17:32;101483.06;;;12.82;76.54
75886;BME280;64561;44.018;10.144;2024-03-08T10:20:01;101479.81;;;12.90;72.24
75886;BME280;64561;44.018;10.144;2024-03-08T10:22:29;101480.00;;;12.97;70.08
75886;BME280;64561;44.018;10.144;2024-03-08T10:24:58;101481.94;;;13.06;67.01
75886;BME280;64561;44.018;10.144;2024-03-08T10:27:26;101477.69;;;13.08;66.51
75886;BME280;64561;44.018;10.144;2024-03-08T10:29:53;101483.13;;;13.20;65.82
75886;BME280;64561;44.018;10.144;2024-03-08T10:32:20;101486.81;;;13.30;65.04
75886;BME280;64561;44.018;10.144;2024-03-08T10:34:48;101480.91;;;13.34;64.26
75886;BME280;64561;44.018;10.144;2024-03-08T10:37:21;101479.25;;;13.36;66.15
75886;BME280;64561;44.018;10.144;2024-03-08T10:40:04;101479.47;;;13.47;68.23
75886;BME280;64561;44.018;10.144;2024-03-08T10:42:43;101482.63;;;13.73;71.20
75886;BME280;64561;44.018;10.144;2024-03-08T10:45:23;101475.31;;;13.91;69.09
75886;BME280;64561;44.018;10.144;2024-03-08T10:48:15;101480.75;;;14.05;68.42
75886;BME280;64561;44.018;10.144;2024-03-08T10:50:49;101477.44;;;14.12;68.18
75886;BME280;64561;44.018;10.144;2024-03-08T10:53:22;101469.66;;;14.09;68.43
75886;BME280;64561;44.018;10.144;2024-03-08T10:55:51;101466.13;;;14.04;68.50
75886;BME280;64561;44.018;10.144;2024-03-08T10:58:25;101471.09;;;13.95;67.80
75886;BME280;64561;44.018;10.144;2024-03-08T11:00:56;101469.47;;;14.00;71.83
75886;BME280;64561;44.018;10.144;2024-03-08T11:06:50;101460.47;;;14.21;68.75
75886;BME280;64561;44.018;10.144;2024-03-08T11:09:27;101450.16;;;14.21;69.07
75886;BME280;64561;44.018;10.144;2024-03-08T11:14:50;101449.41;;;14.26;66.21
75886;BME280;64561;44.018;10.144;2024-03-08T11:17:40;101443.38;;;14.26;68.57
75886;BME280;64561;44.018;10.144;2024-03-08T11:20:13;101448.69;;;14.33;68.11
75886;BME280;64561;44.018;10.144;2024-03-08T11:22:48;101447.88;;;14.36;69.19
75886;BME280;64561;44.018;10.144;2024-03-08T11:25:54;101435.06;;;14.39;66.58
75886;BME280;64561;44.018;10.144;2024-03-08T11:28:24;101436.94;;;14.49;68.11
75886;BME280;64561;44.018;10.144;2024-03-08T11:33:31;101423.53;;;14.67;64.54
75886;BME280;64561;44.018;10.144;2024-03-08T11:38:44;101415.69;;;14.59;61.50
75886;BME280;64561;44.018;10.144;2024-03-08T11:41:20;101412.44;;;14.70;63.93
75886;BME280;64561;44.018;10.144;2024-03-08T11:43:48;101405.69;;;14.78;65.74
75886;BME280;64561;44.018;10.144;2024-03-08T11:46:17;101395.25;;;14.70;59.92
75886;BME280;64561;44.018;10.144;2024-03-08T11:48:47;101388.38;;;14.69;60.26
75886;BME280;64561;44.018;10.144;2024-03-08T11:51:15;101389.09;;;14.60;57.24
75886;BME280;64561;44.018;10.144;2024-03-08T11:53:46;101387.56;;;14.73;59.73
75886;BME280;64561;44.018;10.144;2024-03-08T11:56:16;101375.66;;;14.80;59.93
75886;BME280;64561;44.018;10.144;2024-03-08T11:58:53;101375.88;;;14.92;60.27
75886;BME280;64561;44.018;10.144;2024-03-08T12:01:20;101371.72;;;15.02;59.11
75886;BME280;64561;44.018;10.144;2024-03-08T12:03:55;101369.25;;;15.13;59.52
75886;BME280;64561;44.018;10.144;2024-03-08T12:06:26;101366.78;;;15.19;57.64
75886;BME280;64561;44.018;10.144;2024-03-08T12:08:54;101363.31;;;15.17;57.71
75886;BME280;64561;44.018;10.144;2024-03-08T12:11:22;101350.41;;;15.14;59.39
75886;BME280;64561;44.018;10.144;2024-03-08T12:13:56;101356.25;;;15.03;58.11
75886;BME280;64561;44.018;10.144;2024-03-08T12:16:24;101344.06;;;14.92;60.99
75886;BME280;64561;44.018;10.144;2024-03-08T12:18:52;101343.81;;;14.76;60.20
75886;BME280;64561;44.018;10.144;2024-03-08T12:21:20;101344.41;;;14.57;62.61
75886;BME280;64561;44.018;10.144;2024-03-08T12:24:03;101346.69;;;14.41;65.23
75886;BME280;64561;44.018;10.144;2024-03-08T12:26:30;101343.13;;;14.33;66.07
75886;BME280;64561;44.018;10.144;2024-03-08T12:29:37;101337.66;;;14.16;68.50
75886;BME280;64561;44.018;10.144;2024-03-08T12:32:03;101332.38;;;14.07;67.72
75886;BME280;64561;44.018;10.144;2024-03-08T12:34:32;101334.06;;;14.07;68.75
75886;BME280;64561;44.018;10.144;2024-03-08T12:36:59;101328.97;;;14.10;68.67
75886;BME280;64561;44.018;10.144;2024-03-08T12:39:26;101322.13;;;14.10;68.75
75886;BME280;64561;44.018;10.144;2024-03-08T12:41:54;101315.19;;;14.06;68.61
75886;BME280;64561;44.018;10.144;2024-03-08T12:44:24;101310.06;;;14.06;68.35
75886;BME280;64561;44.018;10.144;2024-03-08T12:46:53;101305.78;;;14.07;69.50
75886;BME280;64561;44.018;10.144;2024-03-08T12:49:21;101296.34;;;14.07;68.98
75886;BME280;64561;44.018;10.144;2024-03-08T12:51:52;101273.94;;;14.02;66.17
75886;BME280;64561;44.018;10.144;2024-03-08T12:54:20;101271.34;;;14.00;68.63
75886;BME280;64561;44.018;10.144;2024-03-08T12:56:51;101255.00;;;13.97;69.63
75886;BME280;64561;44.018;10.144;2024-03-08T12:59:21;101249.75;;;13.92;69.39
75886;BME280;64561;44.018;10.144;2024-03-08T13:01:49;101252.16;;;13.81;67.87